Time;durP1;ratioP1;P1;durP2;ratioP2;P2;SDS_P1;SDS_P2;PMS_P1;PMS_P2;Temp;Humidity;BMP_temperature;BMP_pressure;BME280_temperature;BME280_humidity;BME280_pressure;Samples;Min_cycle;Max_cycle;Signal;HPM_P1;HPM_P2
2022/12/29 00:01:30;;;;;;;5.15;3.08;;;;;;;-143.48;92.91;118439.88;5056644;28;20036;-70
2022/12/29 00:03:55;;;;;;;4.50;2.85;;;;;;;-143.48;92.91;118439.88;5056055;28;20056;-70
2022/12/29 00:06:21;;;;;;;5.95;3.10;;;;;;;-143.48;92.00;118439.88;5056137;28;20021;-70
2022/12/29 00:08:46;;;;;;;5.28;3.00;;;;;;;-143.48;91.54;118439.88;5055353;28;20031;-70
2022/12/29 00:11:20;;;;;;;4.60;3.20;;;;;;;-143.48;91.53;118439.88;5054219;28;20108;-69
2022/12/29 00:16:30;;;;;;;5.43;3.15;;;;;;;-143.48;90.56;118439.88;5054468;28;20031;-69
2022/12/29 00:18:56;;;;;;;4.13;2.60;;;;;;;-143.48;89.83;118439.88;5054286;28;20040;-69
2022/12/29 00:35:14;;;;;;;3.92;2.08;;;;;;;-143.48;86.70;118439.88;5054234;28;20047;-69
2022/12/29 00:45:59;;;;;;;3.25;2.10;;;;;;;-143.48;86.14;118439.88;5053819;28;20433;-69
2022/12/29 00:51:09;;;;;;;4.05;2.10;;;;;;;-143.48;85.38;118439.88;5053657;28;20032;-70
2022/12/29 00:53:34;;;;;;;4.13;2.10;;;;;;;-143.48;85.38;118439.88;5053534;28;20396;-69
2022/12/29 00:56:00;;;;;;;3.60;2.10;;;;;;;-143.48;85.88;118439.88;5053525;28;20032;-70
2022/12/29 00:58:30;;;;;;;4.10;2.10;;;;;;;-143.48;86.47;118439.88;5053658;28;20025;-70
2022/12/29 01:01:03;;;;;;;3.95;2.08;;;;;;;-143.48;85.50;118439.88;5035539;28;20028;-69
2022/12/29 01:03:29;;;;;;;4.75;1.88;;;;;;;-143.48;85.29;118439.88;5053374;28;20388;-70
2022/12/29 01:05:54;;;;;;;3.95;1.65;;;;;;;-143.48;84.66;118439.88;5053390;28;20017;-70
2022/12/29 01:08:19;;;;;;;3.58;1.60;;;;;;;-143.48;85.61;118439.88;5053640;28;20036;-69
2022/12/29 01:10:44;;;;;;;6.60;2.30;;;;;;;-143.48;88.75;118439.88;5035593;28;20047;-70
2022/12/29 01:13:10;;;;;;;3.30;2.00;;;;;;;-143.48;90.99;118439.88;5053269;28;20029;-70
2022/12/29 01:15:35;;;;;;;2.70;1.98;;;;;;;-143.48;92.15;118439.88;5053129;28;20464;-69
2022/12/29 01:18:00;;;;;;;4.22;2.17;;;;;;;-143.48;92.46;118439.88;5053482;28;20067;-72
2022/12/29 01:20:27;;;;;;;5.20;2.25;;;;;;;-143.48;93.66;118439.88;5053268;28;20039;-70
2022/12/29 01:22:52;;;;;;;3.70;2.10;;;;;;;-143.48;94.05;118439.88;5053338;28;20024;-70
2022/12/29 01:25:17;;;;;;;4.75;1.90;;;;;;;-143.48;93.50;118439.88;5053098;28;20023;-70
2022/12/29 01:27:43;;;;;;;7.05;2.20;;;;;;;-143.48;94.10;118439.88;5052996;28;20029;-70
2022/12/29 01:30:09;;;;;;;4.40;1.85;;;;;;;-143.48;94.23;118439.88;5053187;28;20048;-70
2022/12/29 01:32:35;;;;;;;4.07;1.88;;;;;;;-143.48;94.74;118439.88;5053314;28;20496;-70
2022/12/29 01:35:01;;;;;;;3.25;2.05;;;;;;;-143.48;95.13;118439.88;5053275;28;20067;-70
2022/12/29 01:37:26;;;;;;;5.35;1.98;;;;;;;-143.48;95.43;118439.88;5053105;28;20464;-69
2022/12/29 01:39:51;;;;;;;3.33;1.98;;;;;;;-143.48;96.70;118439.88;5053304;28;20096;-70
2022/12/29 01:42:18;;;;;;;4.25;2.10;;;;;;;-143.48;97.12;118439.88;5053153;28;20025;-69
2022/12/29 01:44:49;;;;;;;5.80;2.15;;;;;;;-143.48;97.49;118439.88;5053021;28;20095;-70
2022/12/29 01:47:23;;;;;;;4.40;2.20;;;;;;;-143.48;97.68;118439.88;5053025;28;20025;-70
2022/12/29 01:49:48;;;;;;;3.08;2.20;;;;;;;-143.48;97.85;118439.88;5054551;28;20083;-70
2022/12/29 01:52:14;;;;;;;3.83;2.15;;;;;;;-143.48;97.31;118439.88;5056727;28;20021;-70
2022/12/29 01:54:46;;;;;;;5.13;1.92;;;;;;;-143.48;96.58;118439.88;5056731;28;20025;-69
2022/12/29 01:57:17;;;;;;;4.78;2.17;;;;;;;-143.48;95.98;118439.88;5056644;28;20031;-70
2022/12/29 01:59:49;;;;;;;4.47;2.35;;;;;;;-143.48;95.88;118439.88;5056411;28;20519;-69
2022/12/29 02:02:15;;;;;;;5.15;2.10;;;;;;;-143.48;95.88;118439.88;5056478;28;20023;-69
2022/12/29 02:04:44;;;;;;;2.67;1.88;;;;;;;-143.48;96.01;118439.88;5056361;28;20111;-69
2022/12/29 02:07:16;;;;;;;4.97;2.33;;;;;;;-143.48;96.19;118439.88;5056312;28;20062;-70
2022/12/29 02:09:42;;;;;;;2.55;1.90;;;;;;;-143.48;96.26;118439.88;5056362;28;20067;-69
2022/12/29 02:12:07;;;;;;;3.63;1.95;;;;;;;-143.48;95.75;118439.88;5056274;28;20449;-69
2022/12/29 02:14:33;;;;;;;2.95;2.03;;;;;;;-143.48;95.08;118439.88;5056199;28;20091;-69
2022/12/29 02:17:22;;;;;;;3.17;2.00;;;;;;;-143.48;94.43;118439.88;5055881;28;20024;-69
2022/12/29 02:20:15;;;;;;;2.75;1.90;;;;;;;-143.48;91.61;118439.88;5038142;28;20079;-69
2022/12/29 02:22:58;;;;;;;6.80;2.22;;;;;;;-143.48;92.22;118439.88;5056382;28;20017;-69
2022/12/29 02:25:40;;;;;;;4.35;1.83;;;;;;;-143.48;91.57;118439.88;5056016;28;20521;-69
2022/12/29 02:28:47;;;;;;;1.90;1.40;;;;;;;-143.48;91.09;118439.88;5056047;28;20044;-70
2022/12/29 02:31:32;;;;;;;4.15;1.50;;;;;;;-143.48;91.40;118439.88;5055582;28;20468;-69
2022/12/29 02:34:15;;;;;;;3.80;1.58;;;;;;;-143.48;90.58;118439.88;5045226;28;20531;-69
2022/12/29 02:36:54;;;;;;;;;;;;;;;-143.48;90.20;118439.88;5056517;28;20098;-69
2022/12/29 02:39:28;;;;;;;4.00;1.50;;;;;;;-143.48;90.50;118439.88;5055838;28;19915;-69
2022/12/29 02:42:01;;;;;;;3.85;1.60;;;;;;;-143.48;90.04;118439.88;5055870;28;20431;-69
2022/12/29 02:44:50;;;;;;;4.68;1.75;;;;;;;-143.48;90.17;118439.88;5055753;28;20403;-69
2022/12/29 02:47:28;;;;;;;4.47;1.60;;;;;;;-143.48;89.70;118439.88;5055367;28;20032;-69
2022/12/29 02:50:09;;;;;;;3.92;1.50;;;;;;;-143.48;90.35;118439.88;5036306;28;20048;-69
2022/12/29 02:52:39;;;;;;;5.50;1.60;;;;;;;-143.48;90.46;118439.88;5054057;28;20073;-69
2022/12/29 02:55:04;;;;;;;2.85;1.50;;;;;;;-143.48;89.92;118439.88;5054003;28;20035;-69
2022/12/29 02:57:33;;;;;;;3.83;1.30;;;;;;;-143.48;89.98;118439.88;5036042;28;20025;-69
2022/12/29 03:00:12;;;;;;;4.00;1.45;;;;;;;-143.48;89.14;118439.88;5053902;28;20074;-69
2022/12/29 03:02:43;;;;;;;6.95;1.42;;;;;;;-143.48;87.58;118439.88;5053635;28;20033;-70
2022/12/29 03:05:11;;;;;;;5.03;1.00;;;;;;;-143.48;87.75;118439.88;5055485;28;20044;-69
2022/12/29 03:07:48;;;;;;;4.57;1.35;;;;;;;-143.48;87.34;118439.88;5055533;28;20028;-70
2022/12/29 03:10:16;;;;;;;4.80;0.98;;;;;;;-143.48;86.12;118439.88;5055387;28;20064;-69
2022/12/29 03:16:05;;;;;;;2.97;0.88;;;;;;;-143.48;85.24;118439.88;5055065;28;20083;-69
2022/12/29 03:18:39;;;;;;;5.22;1.25;;;;;;;-143.48;84.45;118439.88;5055204;28;20100;-69
2022/12/29 03:21:16;;;;;;;6.68;1.30;;;;;;;-143.48;84.11;118439.88;5055082;28;20025;-69
2022/12/29 03:23:47;;;;;;;8.00;1.50;;;;;;;-143.48;84.50;118439.88;5054896;28;20435;-69
2022/12/29 03:26:16;;;;;;;6.20;1.55;;;;;;;-143.48;84.55;118439.88;5054696;28;20068;-70
2022/12/29 03:28:47;;;;;;;6.25;1.40;;;;;;;-143.48;83.88;118439.88;5036715;28;20029;-69
2022/12/29 03:31:14;;;;;;;9.98;1.58;;;;;;;-143.48;84.56;118439.88;5055091;28;20053;-69
2022/12/29 03:33:41;;;;;;;10.55;1.40;;;;;;;-143.48;84.54;118439.88;5036752;28;20021;-69
2022/12/29 03:36:11;;;;;;;5.18;1.17;;;;;;;-143.48;84.32;118439.88;5054757;28;20408;-69
2022/12/29 03:39:03;;;;;;;5.18;1.60;;;;;;;-143.48;84.21;118439.88;5054635;28;20476;-70
2022/12/29 03:41:31;;;;;;;7.63;1.38;;;;;;;-143.48;83.60;118439.88;5053998;28;20166;-69
2022/12/29 03:43:57;;;;;;;5.15;1.20;;;;;;;-143.48;83.07;118439.88;5054510;28;20021;-69
2022/12/29 03:46:22;;;;;;;6.97;1.40;;;;;;;-143.48;83.98;118439.88;5054256;28;20027;-70
2022/12/29 03:48:47;;;;;;;8.55;0.95;;;;;;;-143.48;84.39;118439.88;5054443;28;20456;-69
2022/12/29 03:51:13;;;;;;;7.50;1.33;;;;;;;-143.48;84.50;118439.88;5054601;28;20381;-69
2022/12/29 03:53:39;;;;;;;7.70;1.42;;;;;;;-143.48;84.25;118439.88;5054524;28;20103;-69
2022/12/29 03:56:04;;;;;;;8.80;1.17;;;;;;;-143.48;84.27;118439.88;5054247;28;20025;-69
2022/12/29 03:58:29;;;;;;;6.88;1.20;;;;;;;-143.48;84.53;118439.88;5054249;28;20067;-69
2022/12/29 04:00:55;;;;;;;6.15;1.35;;;;;;;-143.48;85.18;118439.88;5054100;28;20117;-70
2022/12/29 04:03:20;;;;;;;6.07;1.40;;;;;;;-143.48;85.41;118439.88;5054275;28;20025;-69
2022/12/29 04:05:45;;;;;;;4.25;1.08;;;;;;;-143.48;85.39;118439.88;5054207;28;20048;-70
2022/12/29 04:08:10;;;;;;;6.07;0.80;;;;;;;-143.48;86.09;118439.88;5054125;28;20108;-69
2022/12/29 04:10:36;;;;;;;5.65;1.20;;;;;;;-143.48;85.20;118439.88;5054027;28;20024;-69
2022/12/29 04:13:01;;;;;;;3.58;0.95;;;;;;;-143.48;85.54;118439.88;5053884;28;20024;-70
2022/12/29 04:15:26;;;;;;;5.63;0.90;;;;;;;-143.48;86.03;118439.88;5036237;28;20078;-70
2022/12/29 04:17:52;;;;;;;7.95;1.38;;;;;;;-143.48;86.14;118439.88;5053867;28;20032;-69
2022/12/29 04:23:06;;;;;;;2.90;1.05;;;;;;;-143.48;86.19;118439.88;5053737;28;20032;-70
2022/12/29 04:25:32;;;;;;;5.85;0.80;;;;;;;-143.48;85.31;118439.88;5053719;28;20039;-69
2022/12/29 04:27:57;;;;;;;5.15;1.40;;;;;;;-143.48;84.92;118439.88;5053930;28;20029;-70
2022/12/29 04:30:23;;;;;;;5.45;1.08;;;;;;;-143.48;85.57;118439.88;5053877;28;20044;-70
2022/12/29 04:32:48;;;;;;;4.35;1.30;;;;;;;-143.48;84.19;118439.88;5053897;28;20527;-70
2022/12/29 04:35:13;;;;;;;6.22;1.20;;;;;;;-143.48;83.67;118439.88;5036600;28;20021;-70
2022/12/29 04:37:39;;;;;;;7.80;1.17;;;;;;;-143.48;83.33;118439.88;5053750;28;20058;-70
2022/12/29 04:40:05;;;;;;;8.82;1.70;;;;;;;-143.48;82.75;118439.88;5035691;28;20078;-70
2022/12/29 04:42:30;;;;;;;8.73;1.67;;;;;;;-143.48;82.01;118439.88;5053684;28;20087;-69
2022/12/29 04:44:55;;;;;;;6.22;1.40;;;;;;;-143.48;81.98;118439.88;5053677;28;20345;-70
2022/12/29 04:47:20;;;;;;;8.07;1.30;;;;;;;-143.48;80.75;118439.88;5053726;28;20108;-70
2022/12/29 04:49:46;;;;;;;7.75;1.13;;;;;;;-143.48;81.58;118439.88;5053841;28;20403;-70
2022/12/29 04:52:11;;;;;;;10.65;1.80;;;;;;;-143.48;80.10;118439.88;5053703;28;20036;-70
2022/12/29 04:54:36;;;;;;;8.18;1.30;;;;;;;-143.48;79.26;118439.88;5053546;28;20526;-69
2022/12/29 04:57:02;;;;;;;9.65;1.45;;;;;;;-143.48;78.43;118439.88;5053585;28;20025;-69
2022/12/29 04:59:27;;;;;;;10.43;1.58;;;;;;;-143.48;77.88;118439.88;5053394;28;20029;-69
2022/12/29 05:01:52;;;;;;;7.18;1.40;;;;;;;-143.48;78.43;118439.88;5053279;28;20032;-69
2022/12/29 05:04:17;;;;;;;10.68;1.80;;;;;;;-143.48;78.34;118439.88;5053413;28;20044;-70
2022/12/29 05:06:43;;;;;;;11.23;1.58;;;;;;;-143.48;78.14;118439.88;5053287;28;20021;-69
2022/12/29 05:09:08;;;;;;;7.95;1.30;;;;;;;-143.48;78.19;118439.88;5053431;28;20032;-70
2022/12/29 05:11:33;;;;;;;11.02;1.35;;;;;;;-143.48;79.96;118439.88;5053390;28;20024;-69
2022/12/29 05:13:59;;;;;;;10.27;1.55;;;;;;;-143.48;80.79;118439.88;5053409;28;20159;-70
2022/12/29 05:16:24;;;;;;;9.73;1.70;;;;;;;-143.48;81.50;118439.88;5053326;28;20064;-69
2022/12/29 05:18:49;;;;;;;9.50;1.88;;;;;;;-143.48;81.81;118439.88;5053449;28;20029;-70
2022/12/29 05:21:14;;;;;;;7.10;1.65;;;;;;;-143.48;82.99;118439.88;5053270;28;20021;-70
2022/12/29 05:23:40;;;;;;;12.10;1.90;;;;;;;-143.48;83.48;118439.88;5053148;28;20155;-69
2022/12/29 05:26:05;;;;;;;9.02;2.33;;;;;;;-143.48;84.09;118439.88;5056912;28;20494;-70
2022/12/29 05:28:30;;;;;;;11.18;1.77;;;;;;;-143.48;85.25;118439.88;5057134;28;20029;-69
2022/12/29 05:30:56;;;;;;;9.70;1.70;;;;;;;-143.48;84.76;118439.88;5057284;28;20025;-70
2022/12/29 05:33:21;;;;;;;13.57;1.80;;;;;;;-143.48;85.49;118439.88;5039207;28;20021;-70
2022/12/29 05:35:46;;;;;;;12.05;2.35;;;;;;;-143.48;84.83;118439.88;5057117;28;20052;-70
2022/12/29 05:38:12;;;;;;;13.55;1.90;;;;;;;-143.48;84.58;118439.88;5057034;28;20025;-69
2022/12/29 05:40:37;;;;;;;11.48;1.75;;;;;;;-143.48;85.48;118439.88;5056883;28;20021;-69
2022/12/29 05:43:03;;;;;;;10.55;1.70;;;;;;;-143.48;85.00;118439.88;5038981;28;20032;-70
2022/12/29 05:45:28;;;;;;;9.48;1.80;;;;;;;-143.48;85.54;118439.88;5056842;28;20032;-69
2022/12/29 05:47:53;;;;;;;12.55;1.92;;;;;;;-143.48;85.75;118439.88;5056739;28;20445;-69
2022/12/29 05:50:18;;;;;;;15.40;1.80;;;;;;;-143.48;86.81;118439.88;5056584;28;20115;-69
2022/12/29 05:52:44;;;;;;;9.20;1.65;;;;;;;-143.48;86.35;118439.88;5056991;28;20074;-69
2022/12/29 05:55:10;;;;;;;10.82;1.80;;;;;;;-143.48;86.33;118439.88;5056491;28;20357;-69
2022/12/29 05:57:35;;;;;;;11.18;2.00;;;;;;;-143.48;86.59;118439.88;5056667;28;20029;-70
2022/12/29 06:00:01;;;;;;;9.65;2.08;;;;;;;-143.48;86.45;118439.88;5038560;28;20553;-69
2022/12/29 06:02:26;;;;;;;14.18;2.45;;;;;;;-143.48;86.01;118439.88;5056471;28;20033;-70
2022/12/29 06:04:51;;;;;;;11.15;1.73;;;;;;;-143.48;86.05;118439.88;5056385;28;20746;-69
2022/12/29 06:07:17;;;;;;;13.65;2.08;;;;;;;-143.48;85.54;118439.88;5056579;28;20062;-70
2022/12/29 06:09:42;;;;;;;9.80;1.80;;;;;;;-143.48;83.98;118439.88;5056476;28;20494;-70
2022/12/29 06:12:07;;;;;;;13.93;2.40;;;;;;;-143.48;83.27;118439.88;5038390;28;20040;-69
2022/12/29 06:14:32;;;;;;;13.32;1.88;;;;;;;-143.48;83.89;118439.88;5056527;28;20452;-69
2022/12/29 06:16:58;;;;;;;14.93;2.30;;;;;;;-143.48;83.97;118439.88;5056443;28;20029;-69
2022/12/29 06:19:23;;;;;;;13.20;1.77;;;;;;;-143.48;83.69;118439.88;5056416;28;20159;-69
2022/12/29 06:21:48;;;;;;;13.75;2.45;;;;;;;-143.48;83.07;118439.88;5056406;28;20049;-69
2022/12/29 06:24:14;;;;;;;17.38;2.38;;;;;;;-143.48;84.40;118439.88;5038248;28;20050;-70
2022/12/29 06:26:40;;;;;;;14.00;2.13;;;;;;;-143.48;84.53;118439.88;5055930;28;20045;-69
2022/12/29 06:29:07;;;;;;;12.85;1.98;;;;;;;-143.48;83.61;118439.88;5056204;28;20025;-69
2022/12/29 06:31:32;;;;;;;16.20;2.38;;;;;;;-143.48;84.26;118439.88;5055890;28;20020;-70
2022/12/29 06:33:57;;;;;;;17.90;2.20;;;;;;;-143.48;85.14;118439.88;5055867;28;20467;-69
2022/12/29 06:36:23;;;;;;;14.13;2.35;;;;;;;-143.48;85.13;118439.88;5055904;28;20036;-69
2022/12/29 06:38:48;;;;;;;13.77;1.95;;;;;;;-143.48;85.06;118439.88;5055752;28;20027;-69
2022/12/29 06:41:13;;;;;;;19.50;2.35;;;;;;;-143.48;84.33;118439.88;5037797;28;20060;-70
2022/12/29 06:43:38;;;;;;;10.05;2.03;;;;;;;-143.48;84.40;118439.88;5055825;28;20093;-70
2022/12/29 06:46:04;;;;;;;10.93;1.60;;;;;;;-143.48;84.32;118439.88;5055718;28;20020;-71
2022/12/29 06:48:30;;;;;;;11.52;1.90;;;;;;;-143.48;83.98;118439.88;5037590;28;20017;-69
2022/12/29 06:50:55;;;;;;;15.10;2.20;;;;;;;-143.48;83.09;118439.88;5055750;28;20363;-69
2022/12/29 06:53:20;;;;;;;12.35;1.95;;;;;;;-143.48;82.98;118439.88;5037734;28;20025;-69
2022/12/29 06:55:45;;;;;;;14.52;1.88;;;;;;;-143.48;82.97;118439.88;5055338;28;20032;-69
2022/12/29 06:58:11;;;;;;;9.88;1.80;;;;;;;-143.48;82.08;118439.88;5055277;28;20033;-69
2022/12/29 07:00:36;;;;;;;11.75;2.33;;;;;;;-143.48;82.02;118439.88;5055564;28;20049;-69
2022/12/29 07:03:01;;;;;;;13.80;1.90;;;;;;;-143.48;80.76;118439.88;5055450;28;20024;-70
2022/12/29 07:05:27;;;;;;;9.30;1.80;;;;;;;-143.48;80.26;118439.88;5055224;28;20021;-69
2022/12/29 07:07:53;;;;;;;15.05;3.05;;;;;;;-143.48;79.07;118439.88;5055217;28;20036;-70
2022/12/29 07:10:19;;;;;;;15.10;2.20;;;;;;;-143.48;78.64;118439.88;5055976;28;20104;-70
2022/12/29 07:12:44;;;;;;;19.23;2.28;;;;;;;-143.48;78.89;118439.88;5055229;28;20098;-69
2022/12/29 07:15:09;;;;;;;16.50;2.05;;;;;;;-143.48;78.53;118439.88;5055163;28;20025;-69
2022/12/29 07:17:35;;;;;;;15.52;2.47;;;;;;;-143.48;77.46;118439.88;5055518;28;20021;-70
2022/12/29 07:20:00;;;;;;;21.80;2.15;;;;;;;-143.48;77.12;118439.88;5055183;28;20029;-69
2022/12/29 07:22:25;;;;;;;17.52;2.60;;;;;;;-143.48;77.20;118439.88;5054864;28;20072;-70
2022/12/29 07:24:51;;;;;;;19.80;2.20;;;;;;;-143.48;76.64;118439.88;5055107;28;20032;-70
2022/12/29 07:27:16;;;;;;;12.20;1.70;;;;;;;-143.48;76.59;118439.88;5054798;28;20067;-69
2022/12/29 07:29:41;;;;;;;12.73;2.47;;;;;;;-143.48;76.78;118439.88;5054960;28;20104;-70
2022/12/29 07:32:07;;;;;;;12.30;2.35;;;;;;;-143.48;77.35;118439.88;5054855;28;20028;-69
2022/12/29 07:34:32;;;;;;;11.90;2.20;;;;;;;-143.48;77.61;118439.88;5060539;28;20041;-70
2022/12/29 07:36:57;;;;;;;7.82;1.38;;;;;;;-143.48;78.15;118439.88;5068560;28;20059;-72
2022/12/29 07:39:22;;;;;;;9.70;1.50;;;;;;;-143.48;78.90;118439.88;5056801;28;20033;-69
2022/12/29 07:41:48;;;;;;;9.13;1.60;;;;;;;-143.48;79.28;118439.88;5054792;28;20020;-69
2022/12/29 07:44:13;;;;;;;10.55;1.80;;;;;;;-143.48;79.94;118439.88;5054206;28;20104;-69
2022/12/29 07:46:38;;;;;;;10.27;1.60;;;;;;;-143.48;80.82;118439.88;5054238;28;20017;-69
2022/12/29 07:49:04;;;;;;;8.00;1.70;;;;;;;-143.48;80.74;118439.88;5054360;28;20104;-69
2022/12/29 07:51:29;;;;;;;10.20;1.83;;;;;;;-143.48;81.53;118439.88;5055121;28;20392;-69
2022/12/29 07:53:54;;;;;;;12.00;1.98;;;;;;;-143.48;81.52;118439.88;5055341;28;20017;-70
2022/12/29 07:56:19;;;;;;;12.07;2.08;;;;;;;-143.48;81.93;118439.88;5036305;28;20032;-70
2022/12/29 07:58:45;;;;;;;9.20;1.73;;;;;;;-143.48;82.28;118439.88;5054082;28;20096;-69
2022/12/29 08:01:10;;;;;;;10.75;1.98;;;;;;;-143.48;80.83;118439.88;5055193;28;20033;-70
2022/12/29 08:03:36;;;;;;;17.20;2.30;;;;;;;-143.48;80.87;118439.88;5036906;28;20025;-70
2022/12/29 08:06:01;;;;;;;10.70;1.90;;;;;;;-143.48;80.89;118439.88;5054826;28;20074;-70
2022/12/29 08:08:27;;;;;;;8.27;2.00;;;;;;;-143.48;79.71;118439.88;5054913;28;20064;-69
2022/12/29 08:10:52;;;;;;;13.32;2.00;;;;;;;-143.48;79.48;118439.88;5055099;28;20103;-69
2022/12/29 08:13:17;;;;;;;7.97;1.90;;;;;;;-143.48;78.89;118439.88;5055058;28;20029;-70
2022/12/29 08:15:42;;;;;;;13.88;1.98;;;;;;;-143.48;78.90;118439.88;5055543;28;20036;-70
2022/12/29 08:18:08;;;;;;;12.13;2.05;;;;;;;-143.48;77.93;118439.88;5037266;28;20021;-70
2022/12/29 08:20:33;;;;;;;12.57;2.05;;;;;;;-143.48;76.71;118439.88;5053908;28;20048;-69
2022/12/29 08:22:59;;;;;;;16.65;2.20;;;;;;;-143.48;75.62;118439.88;5053180;28;20078;-69
2022/12/29 08:25:24;;;;;;;17.95;2.17;;;;;;;-143.48;76.13;118439.88;5055398;28;20028;-70
2022/12/29 08:27:49;;;;;;;11.15;2.00;;;;;;;-143.48;76.66;118439.88;5055281;28;20056;-69
2022/12/29 08:30:15;;;;;;;14.98;2.05;;;;;;;-143.48;75.22;118439.88;5036414;28;20203;-69
2022/12/29 08:32:40;;;;;;;14.93;2.13;;;;;;;-143.48;75.85;118439.88;5056571;28;20431;-68
2022/12/29 08:35:06;;;;;;;13.48;2.53;;;;;;;-143.48;76.93;118439.88;5054252;28;20021;-69
2022/12/29 08:37:33;;;;;;;18.02;2.67;;;;;;;-143.48;76.12;118439.88;5053625;28;20087;-68
2022/12/29 08:39:59;;;;;;;16.60;2.30;;;;;;;-143.48;75.75;118439.88;5055706;28;20361;-69
2022/12/29 08:42:30;;;;;;;11.77;2.15;;;;;;;-143.48;76.08;118439.88;5054544;28;20021;-70
2022/12/29 08:44:55;;;;;;;19.67;2.40;;;;;;;-143.48;76.02;118439.88;5053490;28;20024;-70
2022/12/29 08:47:21;;;;;;;13.88;2.55;;;;;;;-143.48;75.83;118439.88;5035567;28;20025;-69
2022/12/29 08:49:46;;;;;;;17.05;2.13;;;;;;;-143.48;76.04;118439.88;5053281;28;20421;-69
2022/12/29 08:52:11;;;;;;;11.15;1.95;;;;;;;-143.48;76.80;118439.88;5053671;28;20060;-69
2022/12/29 08:54:37;;;;;;;22.13;2.67;;;;;;;-143.48;77.10;118439.88;5053824;28;20388;-69
2022/12/29 08:57:02;;;;;;;10.98;2.33;;;;;;;-143.48;77.96;118439.88;5053095;28;20075;-69
2022/12/29 08:59:27;;;;;;;18.42;2.53;;;;;;;-143.48;77.30;118439.88;5053879;28;20104;-69
2022/12/29 09:01:53;;;;;;;13.85;2.15;;;;;;;-143.48;77.46;118439.88;5057515;28;20028;-69
2022/12/29 09:04:18;;;;;;;13.55;1.80;;;;;;;-143.48;76.92;118439.88;5039716;28;20385;-69
2022/12/29 09:06:44;;;;;;;12.07;1.98;;;;;;;-143.48;76.96;118439.88;5059242;28;20028;-69
2022/12/29 09:09:10;;;;;;;12.73;2.40;;;;;;;-143.48;78.45;118439.88;5057684;28;20109;-70
2022/12/29 09:11:36;;;;;;;15.68;2.55;;;;;;;-143.48;78.35;118439.88;5057449;28;20168;-69
2022/12/29 09:14:01;;;;;;;10.50;1.80;;;;;;;-143.48;78.52;118439.88;5057851;28;20029;-69
2022/12/29 09:16:27;;;;;;;14.02;2.30;;;;;;;-143.48;80.87;118439.88;5057454;28;20431;-69
2022/12/29 09:18:52;;;;;;;16.55;2.58;;;;;;;-143.48;83.67;118439.88;5039331;28;20421;-70
2022/12/29 09:21:17;;;;;;;14.43;2.30;;;;;;;-143.48;84.55;118439.88;5041029;28;20074;-70
2022/12/29 09:23:43;;;;;;;16.30;2.47;;;;;;;-143.48;85.45;118439.88;5058762;28;20412;-71
2022/12/29 09:26:08;;;;;;;15.02;2.20;;;;;;;-143.48;86.55;118439.88;5057847;28;20056;-69
2022/12/29 09:28:34;;;;;;;12.68;2.63;;;;;;;-143.48;86.29;118439.88;5039144;28;20037;-69
2022/12/29 09:31:00;;;;;;;17.15;2.28;;;;;;;-143.48;87.63;118439.88;5058986;28;20027;-70
2022/12/29 09:33:26;;;;;;;11.27;2.03;;;;;;;-143.48;87.91;118439.88;5054487;28;20461;-71
2022/12/29 09:35:56;;;;;;;15.00;2.60;;;;;;;-143.48;88.45;118439.88;5064993;28;20120;-70
2022/12/29 09:38:23;;;;;;;21.90;2.63;;;;;;;-143.48;89.52;118439.88;5063060;28;20020;-70
2022/12/29 09:40:57;;;;;;;12.02;2.25;;;;;;;-143.48;88.76;118439.88;5041353;28;20455;-69
2022/12/29 09:43:22;;;;;;;9.88;1.98;;;;;;;-143.48;88.64;118439.88;5056872;28;20024;-70
2022/12/29 09:46:04;;;;;;;14.15;1.88;;;;;;;-143.48;89.29;118439.88;5057312;28;20111;-70
2022/12/29 09:48:34;;;;;;;16.73;2.00;;;;;;;-143.48;89.72;118439.88;5056961;28;20029;-70
2022/12/29 09:51:08;;;;;;;14.27;2.30;;;;;;;-143.48;91.04;118439.88;5038540;28;20060;-69
2022/12/29 09:53:42;;;;;;;11.10;1.90;;;;;;;-143.48;91.04;118439.88;5061156;28;20029;-70
2022/12/29 09:56:15;;;;;;;15.00;2.10;;;;;;;-143.48;91.62;118439.88;5057177;28;20033;-69
2022/12/29 09:58:57;;;;;;;13.95;2.15;;;;;;;-143.48;92.55;118439.88;5038668;28;20464;-69
2022/12/29 10:01:46;;;;;;;13.43;2.72;;;;;;;-143.48;92.90;118439.88;5056788;28;20029;-70
2022/12/29 10:04:12;;;;;;;13.55;1.98;;;;;;;-143.48;92.97;118439.88;5056713;28;20032;-70
2022/12/29 10:06:51;;;;;;;10.98;2.20;;;;;;;-143.48;92.89;118439.88;5056649;28;20025;-70
2022/12/29 10:09:34;;;;;;;12.48;2.33;;;;;;;-143.48;92.86;118439.88;5056890;28;20487;-70
2022/12/29 10:12:19;;;;;;;13.73;2.40;;;;;;;-143.48;93.59;118439.88;5056213;28;20407;-70
2022/12/29 10:15:02;;;;;;;15.25;2.67;;;;;;;-143.48;92.75;118439.88;5056627;28;20039;-70
2022/12/29 10:17:36;;;;;;;;;;;;;;;-143.48;92.76;118439.88;5057119;28;20047;-70
2022/12/29 10:20:21;;;;;;;12.23;2.78;;;;;;;-143.48;92.82;118439.88;5056323;28;19963;-70
2022/12/29 10:23:13;;;;;;;10.95;2.33;;;;;;;-143.48;92.14;118439.88;5056287;28;20082;-69
2022/12/29 10:25:41;;;;;;;11.93;2.03;;;;;;;-143.48;92.39;118439.88;5055840;28;20025;-70
2022/12/29 10:28:20;;;;;;;16.20;2.60;;;;;;;-143.48;91.83;118439.88;5057178;28;20527;-70
2022/12/29 10:30:48;;;;;;;12.98;2.10;;;;;;;-143.48;91.81;118439.88;5060448;28;20021;-71
2022/12/29 10:33:31;;;;;;;15.75;2.58;;;;;;;-143.48;91.00;118439.88;5040876;28;20082;-69
2022/12/29 10:35:56;;;;;;;12.67;2.20;;;;;;;-143.48;91.31;118439.88;5058126;28;20104;-70
2022/12/29 10:38:35;;;;;;;9.70;2.28;;;;;;;-143.48;91.63;118439.88;5058242;28;20303;-70
2022/12/29 10:41:11;;;;;;;18.15;2.95;;;;;;;-143.48;90.69;118439.88;5038983;28;20035;-70
2022/12/29 10:43:46;;;;;;;15.63;2.40;;;;;;;-143.48;90.75;118439.88;5055960;28;20100;-70
2022/12/29 10:46:42;;;;;;;14.27;2.70;;;;;;;-143.48;90.40;118439.88;5055681;28;20021;-69
2022/12/29 10:49:16;;;;;;;15.75;2.95;;;;;;;-143.48;90.05;118439.88;5026421;28;20095;-70
2022/12/29 10:51:45;;;;;;;17.10;2.83;;;;;;;-143.48;89.86;118439.88;5056294;28;20027;-69
2022/12/29 10:54:28;;;;;;;20.90;3.08;;;;;;;-143.48;89.28;118439.88;5037998;28;20025;-69
2022/12/29 10:57:09;;;;;;;16.98;3.45;;;;;;;-143.48;87.68;118439.88;5056542;28;20036;-69
2022/12/29 10:59:36;;;;;;;19.17;3.35;;;;;;;-143.48;86.17;118439.88;5037810;28;20024;-68
2022/12/29 11:02:04;;;;;;;19.48;3.67;;;;;;;-143.48;86.02;118439.88;5062636;28;20029;-69
2022/12/29 11:04:52;;;;;;;16.73;2.65;;;;;;;-143.48;83.68;118439.88;5055659;28;20029;-69
2022/12/29 11:07:19;;;;;;;17.00;2.88;;;;;;;-143.48;83.92;118439.88;5057476;28;20060;-69
2022/12/29 11:09:46;;;;;;;20.50;3.42;;;;;;;-143.48;84.19;118439.88;5055178;28;20070;-69
2022/12/29 11:12:29;;;;;;;15.85;3.55;;;;;;;-143.48;82.18;118439.88;5055382;28;20163;-70
2022/12/29 11:15:12;;;;;;;20.77;3.40;;;;;;;-143.48;82.90;118439.88;5055250;28;20056;-69
2022/12/29 11:17:50;;;;;;;17.35;2.88;;;;;;;-143.48;84.34;118439.88;5055121;28;20045;-69
2022/12/29 11:20:37;;;;;;;24.17;3.72;;;;;;;-143.48;84.32;118439.88;5055021;28;20530;-69
2022/12/29 11:23:05;;;;;;;19.52;3.38;;;;;;;-143.48;83.56;118439.88;5053997;28;20060;-68
2022/12/29 11:25:30;;;;;;;27.23;3.20;;;;;;;-143.48;83.69;118439.88;5055026;28;20465;-69
2022/12/29 11:28:15;;;;;;;18.20;3.25;;;;;;;-143.48;82.91;118439.88;5036906;28;20052;-68
2022/12/29 11:30:40;;;;;;;13.35;3.10;;;;;;;-143.48;83.33;118439.88;5055289;28;20491;-69
2022/12/29 11:33:06;;;;;;;23.65;3.35;;;;;;;-143.48;83.73;118439.88;5055063;28;20104;-69
2022/12/29 11:35:40;;;;;;;19.90;3.47;;;;;;;-143.48;83.25;118439.88;5055250;28;20045;-69
2022/12/29 11:38:16;;;;;;;19.30;3.13;;;;;;;-143.48;83.57;118439.88;5054933;28;20029;-69
2022/12/29 11:40:42;;;;;;;25.27;3.65;;;;;;;-143.48;82.83;118439.88;5054809;28;20024;-69
2022/12/29 11:43:23;;;;;;;23.38;3.40;;;;;;;-143.48;82.28;118439.88;5054946;28;20075;-69
2022/12/29 11:45:48;;;;;;;18.65;4.35;;;;;;;-143.48;81.43;118439.88;5057630;28;20032;-71